sensor_id;sensor_type;location;lat;lon;timestamp;temperature;humidity
65419;DHT22;52027;50.658;14.004;2022-12-29T00:01:29;21.89;35.20
65419;DHT22;52027;50.658;14.004;2022-12-29T00:03:55;21.90;35.24
65419;DHT22;52027;50.658;14.004;2022-12-29T00:06:20;21.88;35.22
65419;DHT22;52027;50.658;14.004;2022-12-29T00:08:46;21.89;35.20
65419;DHT22;52027;50.658;14.004;2022-12-29T00:11:20;21.88;35.27
65419;DHT22;52027;50.658;14.004;2022-12-29T00:13:46;21.85;35.27
65419;DHT22;52027;50.658;14.004;2022-12-29T00:16:31;21.88;35.24
65419;DHT22;52027;50.658;14.004;2022-12-29T00:18:57;21.85;35.28
65419;DHT22;52027;50.658;14.004;2022-12-29T00:21:23;21.88;35.27
65419;DHT22;52027;50.658;14.004;2022-12-29T00:24:21;21.85;35.24
65419;DHT22;52027;50.658;14.004;2022-12-29T00:27:11;21.83;35.18
65419;DHT22;52027;50.658;14.004;2022-12-29T00:29:55;21.86;35.24
65419;DHT22;52027;50.658;14.004;2022-12-29T00:32:53;21.85;35.28
65419;DHT22;52027;50.658;14.004;2022-12-29T00:35:45;21.82;35.25
65419;DHT22;52027;50.658;14.004;2022-12-29T00:38:12;21.82;35.31
65419;DHT22;52027;50.658;14.004;2022-12-29T00:40:56;21.82;35.30
65419;DHT22;52027;50.658;14.004;2022-12-29T00:43:40;21.83;35.23
65419;DHT22;52027;50.658;14.004;2022-12-29T00:46:24;21.80;35.25
65419;DHT22;52027;50.658;14.004;2022-12-29T00:48:49;21.82;35.27
65419;DHT22;52027;50.658;14.004;2022-12-29T00:51:33;21.82;35.27
65419;DHT22;52027;50.658;14.004;2022-12-29T00:53:58;21.82;35.27
65419;DHT22;52027;50.658;14.004;2022-12-29T00:56:24;21.82;35.28
65419;DHT22;52027;50.658;14.004;2022-12-29T00:58:49;21.82;35.33
65419;DHT22;52027;50.658;14.004;2022-12-29T01:01:15;21.80;35.28
65419;DHT22;52027;50.658;14.004;2022-12-29T01:03:40;21.79;35.25
65419;DHT22;52027;50.658;14.004;2022-12-29T01:06:08;21.80;35.28
65419;DHT22;52027;50.658;14.004;2022-12-29T01:08:34;21.80;35.31
65419;DHT22;52027;50.658;14.004;2022-12-29T01:11:03;21.78;35.27
65419;DHT22;52027;50.658;14.004;2022-12-29T01:13:29;21.80;35.28
65419;DHT22;52027;50.658;14.004;2022-12-29T01:15:55;21.80;35.24
65419;DHT22;52027;50.658;14.004;2022-12-29T01:18:21;21.80;35.21
65419;DHT22;52027;50.658;14.004;2022-12-29T01:20:48;21.80;35.24
65419;DHT22;52027;50.658;14.004;2022-12-29T01:23:13;21.82;35.21
65419;DHT22;52027;50.658;14.004;2022-12-29T01:25:38;21.79;35.22
65419;DHT22;52027;50.658;14.004;2022-12-29T01:28:04;21.79;35.28
65419;DHT22;52027;50.658;14.004;2022-12-29T01:30:30;21.76;35.28
65419;DHT22;52027;50.658;14.004;2022-12-29T01:32:55;21.79;35.25
65419;DHT22;52027;50.658;14.004;2022-12-29T01:35:21;21.80;35.28
65419;DHT22;52027;50.658;14.004;2022-12-29T01:37:46;21.80;35.25
65419;DHT22;52027;50.658;14.004;2022-12-29T01:40:12;21.82;35.25
65419;DHT22;52027;50.658;14.004;2022-12-29T01:42:37;21.79;35.28
65419;DHT22;52027;50.658;14.004;2022-12-29T01:45:08;21.79;35.24
65419;DHT22;52027;50.658;14.004;2022-12-29T01:47:59;21.79;35.27
65419;DHT22;52027;50.658;14.004;2022-12-29T01:50:38;21.79;35.22
65419;DHT22;52027;50.658;14.004;2022-12-29T01:53:16;21.78;35.31
65419;DHT22;52027;50.658;14.004;2022-12-29T01:55:52;21.79;35.22
65419;DHT22;52027;50.658;14.004;2022-12-29T01:58:21;21.79;35.25
65419;DHT22;52027;50.658;14.004;2022-12-29T02:00:47;21.78;35.24
65419;DHT22;52027;50.658;14.004;2022-12-29T02:03:13;21.78;35.25
65419;DHT22;52027;50.658;14.004;2022-12-29T02:05:51;21.78;35.28
65419;DHT22;52027;50.658;14.004;2022-12-29T02:08:20;21.75;35.29
65419;DHT22;52027;50.658;14.004;2022-12-29T02:10:47;21.78;35.29
65419;DHT22;52027;50.658;14.004;2022-12-29T02:13:15;21.78;35.25
65419;DHT22;52027;50.658;14.004;2022-12-29T02:35:03;21.76;35.23
65419;DHT22;52027;50.658;14.004;2022-12-29T02:40:46;21.73;35.29
65419;DHT22;52027;50.658;14.004;2022-12-29T02:43:23;21.76;35.28
65419;DHT22;52027;50.658;14.004;2022-12-29T02:48:40;21.73;35.23
65419;DHT22;52027;50.658;14.004;2022-12-29T02:51:12;21.72;35.26
65419;DHT22;52027;50.658;14.004;2022-12-29T02:53:42;21.78;35.31
65419;DHT22;52027;50.658;14.004;2022-12-29T02:56:27;21.75;35.23
65419;DHT22;52027;50.658;14.004;2022-12-29T02:58:53;21.75;35.28
65419;DHT22;52027;50.658;14.004;2022-12-29T03:04:17;21.75;35.20
65419;DHT22;52027;50.658;14.004;2022-12-29T03:06:56;21.75;35.25
65419;DHT22;52027;50.658;14.004;2022-12-29T03:09:36;21.75;35.25
65419;DHT22;52027;50.658;14.004;2022-12-29T03:12:23;21.76;35.23
65419;DHT22;52027;50.658;14.004;2022-12-29T03:15:13;21.75;35.26
65419;DHT22;52027;50.658;14.004;2022-12-29T03:18:06;21.72;35.26
65419;DHT22;52027;50.658;14.004;2022-12-29T03:21:22;21.73;35.32
65419;DHT22;52027;50.658;14.004;2022-12-29T03:24:10;21.75;35.29
65419;DHT22;52027;50.658;14.004;2022-12-29T03:26:37;21.75;35.27
65419;DHT22;52027;50.658;14.004;2022-12-29T03:29:03;21.73;35.24
65419;DHT22;52027;50.658;14.004;2022-12-29T03:31:30;21.72;35.28
65419;DHT22;52027;50.658;14.004;2022-12-29T03:33:56;21.72;35.27
65419;DHT22;52027;50.658;14.004;2022-12-29T03:36:30;21.73;35.26
65419;DHT22;52027;50.658;14.004;2022-12-29T03:39:06;21.73;35.29
65419;DHT22;52027;50.658;14.004;2022-12-29T03:41:34;21.73;35.25
65419;DHT22;52027;50.658;14.004;2022-12-29T03:44:00;21.72;35.29
65419;DHT22;52027;50.658;14.004;2022-12-29T03:46:25;21.73;35.26
65419;DHT22;52027;50.658;14.004;2022-12-29T03:48:50;21.73;35.20
65419;DHT22;52027;50.658;14.004;2022-12-29T03:51:16;21.72;35.20
65419;DHT22;52027;50.658;14.004;2022-12-29T03:53:41;21.72;35.24
65419;DHT22;52027;50.658;14.004;2022-12-29T03:56:06;21.72;35.25
65419;DHT22;52027;50.658;14.004;2022-12-29T03:58:32;21.75;35.20
65419;DHT22;52027;50.658;14.004;2022-12-29T04:00:57;21.75;35.23
65419;DHT22;52027;50.658;14.004;2022-12-29T04:03:22;21.73;35.20
65419;DHT22;52027;50.658;14.004;2022-12-29T04:05:48;21.75;35.20
65419;DHT22;52027;50.658;14.004;2022-12-29T04:08:13;21.75;35.23
65419;DHT22;52027;50.658;14.004;2022-12-29T04:10:39;21.73;35.19
65419;DHT22;52027;50.658;14.004;2022-12-29T04:13:04;21.75;35.23
65419;DHT22;52027;50.658;14.004;2022-12-29T04:15:30;21.76;35.22
65419;DHT22;52027;50.658;14.004;2022-12-29T04:17:55;21.75;35.20
65419;DHT22;52027;50.658;14.004;2022-12-29T04:20:20;21.72;35.24
65419;DHT22;52027;50.658;14.004;2022-12-29T04:23:04;21.71;35.23
65419;DHT22;52027;50.658;14.004;2022-12-29T04:25:31;21.72;35.26
65419;DHT22;52027;50.658;14.004;2022-12-29T04:27:57;21.71;35.23
65419;DHT22;52027;50.658;14.004;2022-12-29T04:30:22;21.72;35.22
65419;DHT22;52027;50.658;14.004;2022-12-29T04:32:48;21.73;35.27
65419;DHT22;52027;50.658;14.004;2022-12-29T04:35:13;21.72;35.23
65419;DHT22;52027;50.658;14.004;2022-12-29T04:37:39;21.72;35.24
65419;DHT22;52027;50.658;14.004;2022-12-29T04:40:04;21.71;35.25
65419;DHT22;52027;50.658;14.004;2022-12-29T04:42:31;21.72;35.26
65419;DHT22;52027;50.658;14.004;2022-12-29T04:44:57;21.71;35.24
65419;DHT22;52027;50.658;14.004;2022-12-29T04:47:22;21.69;35.27
65419;DHT22;52027;50.658;14.004;2022-12-29T04:49:47;21.73;35.24
65419;DHT22;52027;50.658;14.004;2022-12-29T04:52:13;21.72;35.26
65419;DHT22;52027;50.658;14.004;2022-12-29T04:54:38;21.72;35.24
65419;DHT22;52027;50.658;14.004;2022-12-29T04:57:04;21.69;35.26
65419;DHT22;52027;50.658;14.004;2022-12-29T04:59:30;21.71;35.32
65419;DHT22;52027;50.658;14.004;2022-12-29T05:01:55;21.72;35.27
65419;DHT22;52027;50.658;14.004;2022-12-29T05:04:20;21.72;35.27
65419;DHT22;52027;50.658;14.004;2022-12-29T05:06:46;21.72;35.24
65419;DHT22;52027;50.658;14.004;2022-12-29T05:09:11;21.69;35.21
65419;DHT22;52027;50.658;14.004;2022-12-29T05:11:36;21.69;35.20
65419;DHT22;52027;50.658;14.004;2022-12-29T05:14:02;21.67;35.20
65419;DHT22;52027;50.658;14.004;2022-12-29T05:16:31;21.65;35.18
65419;DHT22;52027;50.658;14.004;2022-12-29T05:18:56;21.65;35.24
65419;DHT22;52027;50.658;14.004;2022-12-29T05:21:22;21.63;35.27
65419;DHT22;52027;50.658;14.004;2022-12-29T05:23:47;21.63;35.27
65419;DHT22;52027;50.658;14.004;2022-12-29T05:26:12;21.62;35.27
65419;DHT22;52027;50.658;14.004;2022-12-29T05:28:38;21.63;35.30
65419;DHT22;52027;50.658;14.004;2022-12-29T05:31:03;21.63;35.27
65419;DHT22;52027;50.658;14.004;2022-12-29T05:33:28;21.63;35.28
65419;DHT22;52027;50.658;14.004;2022-12-29T05:36:14;21.62;35.32
65419;DHT22;52027;50.658;14.004;2022-12-29T05:38:40;21.62;35.36
65419;DHT22;52027;50.658;14.004;2022-12-29T05:41:05;21.62;35.41
65419;DHT22;52027;50.658;14.004;2022-12-29T05:43:30;21.61;35.35
65419;DHT22;52027;50.658;14.004;2022-12-29T05:45:56;21.63;35.36
65419;DHT22;52027;50.658;14.004;2022-12-29T05:48:22;21.59;35.39
65419;DHT22;52027;50.658;14.004;2022-12-29T05:50:50;21.61;35.38
65419;DHT22;52027;50.658;14.004;2022-12-29T05:53:16;21.63;35.42
65419;DHT22;52027;50.658;14.004;2022-12-29T05:55:42;21.62;35.44
65419;DHT22;52027;50.658;14.004;2022-12-29T05:58:08;21.62;35.44
65419;DHT22;52027;50.658;14.004;2022-12-29T06:00:33;21.62;35.41
65419;DHT22;52027;50.658;14.004;2022-12-29T06:02:59;21.63;35.42
65419;DHT22;52027;50.658;14.004;2022-12-29T06:05:24;21.62;35.71
65419;DHT22;52027;50.658;14.004;2022-12-29T06:07:50;21.58;35.57
65419;DHT22;52027;50.658;14.004;2022-12-29T06:10:19;21.61;35.53
65419;DHT22;52027;50.658;14.004;2022-12-29T06:12:44;21.62;35.57
65419;DHT22;52027;50.658;14.004;2022-12-29T06:15:10;21.61;35.58
65419;DHT22;52027;50.658;14.004;2022-12-29T06:17:35;21.63;35.57
65419;DHT22;52027;50.658;14.004;2022-12-29T06:20:02;21.63;35.56
65419;DHT22;52027;50.658;14.004;2022-12-29T06:22:27;21.66;35.60
65419;DHT22;52027;50.658;14.004;2022-12-29T06:24:53;21.65;35.59
65419;DHT22;52027;50.658;14.004;2022-12-29T06:27:18;21.71;35.63
65419;DHT22;52027;50.658;14.004;2022-12-29T06:29:44;21.67;35.68
65419;DHT22;52027;50.658;14.004;2022-12-29T06:32:09;21.72;35.72
65419;DHT22;52027;50.658;14.004;2022-12-29T06:34:38;21.69;35.75
65419;DHT22;52027;50.658;14.004;2022-12-29T06:37:03;21.71;35.74
65419;DHT22;52027;50.658;14.004;2022-12-29T06:39:29;21.72;35.74
65419;DHT22;52027;50.658;14.004;2022-12-29T06:41:54;21.72;35.76
65419;DHT22;52027;50.658;14.004;2022-12-29T06:44:21;21.75;35.80
65419;DHT22;52027;50.658;14.004;2022-12-29T06:46:46;21.75;35.81
65419;DHT22;52027;50.658;14.004;2022-12-29T06:49:12;21.75;35.82
65419;DHT22;52027;50.658;14.004;2022-12-29T06:51:37;21.73;35.81
65419;DHT22;52027;50.658;14.004;2022-12-29T06:54:03;21.73;35.83
65419;DHT22;52027;50.658;14.004;2022-12-29T06:56:28;21.72;35.90
65419;DHT22;52027;50.658;14.004;2022-12-29T06:58:53;21.73;35.87
65419;DHT22;52027;50.658;14.004;2022-12-29T07:01:19;21.78;35.87
65419;DHT22;52027;50.658;14.004;2022-12-29T07:03:44;21.76;35.95
65419;DHT22;52027;50.658;14.004;2022-12-29T07:06:09;21.79;35.96
65419;DHT22;52027;50.658;14.004;2022-12-29T07:08:35;21.76;35.93
65419;DHT22;52027;50.658;14.004;2022-12-29T07:11:00;21.78;36.04
65419;DHT22;52027;50.658;14.004;2022-12-29T07:13:26;21.78;36.11
65419;DHT22;52027;50.658;14.004;2022-12-29T07:15:51;21.79;36.16
65419;DHT22;52027;50.658;14.004;2022-12-29T07:18:16;21.79;36.30
65419;DHT22;52027;50.658;14.004;2022-12-29T07:20:42;21.78;36.40
65419;DHT22;52027;50.658;14.004;2022-12-29T07:23:07;21.80;36.42
65419;DHT22;52027;50.658;14.004;2022-12-29T07:25:32;21.79;36.37
65419;DHT22;52027;50.658;14.004;2022-12-29T07:28:00;21.80;36.43
65419;DHT22;52027;50.658;14.004;2022-12-29T07:30:25;21.82;36.37
65419;DHT22;52027;50.658;14.004;2022-12-29T07:32:51;21.82;36.43
65419;DHT22;52027;50.658;14.004;2022-12-29T07:35:46;21.80;36.42
65419;DHT22;52027;50.658;14.004;2022-12-29T07:38:11;21.82;36.48
65419;DHT22;52027;50.658;14.004;2022-12-29T07:40:36;21.82;36.49
65419;DHT22;52027;50.658;14.004;2022-12-29T07:43:02;21.82;36.49
65419;DHT22;52027;50.658;14.004;2022-12-29T07:45:27;21.82;36.48
65419;DHT22;52027;50.658;14.004;2022-12-29T07:47:52;21.80;36.48
65419;DHT22;52027;50.658;14.004;2022-12-29T07:50:18;21.83;36.45
65419;DHT22;52027;50.658;14.004;2022-12-29T07:52:44;21.85;36.47
65419;DHT22;52027;50.658;14.004;2022-12-29T07:55:10;21.89;36.49
65419;DHT22;52027;50.658;14.004;2022-12-29T07:57:35;21.88;36.45
65419;DHT22;52027;50.658;14.004;2022-12-29T08:00:01;21.83;36.49
65419;DHT22;52027;50.658;14.004;2022-12-29T08:02:26;21.88;36.48
65419;DHT22;52027;50.658;14.004;2022-12-29T08:04:52;21.88;36.43
65419;DHT22;52027;50.658;14.004;2022-12-29T08:07:17;21.90;36.47
65419;DHT22;52027;50.658;14.004;2022-12-29T08:09:42;21.88;36.42
65419;DHT22;52027;50.658;14.004;2022-12-29T08:12:09;21.92;36.48
65419;DHT22;52027;50.658;14.004;2022-12-29T08:14:35;21.89;36.44
65419;DHT22;52027;50.658;14.004;2022-12-29T08:17:00;21.90;36.52
65419;DHT22;52027;50.658;14.004;2022-12-29T08:19:26;21.93;36.48
65419;DHT22;52027;50.658;14.004;2022-12-29T08:21:53;21.93;36.48
65419;DHT22;52027;50.658;14.004;2022-12-29T08:24:18;21.92;36.52
65419;DHT22;52027;50.658;14.004;2022-12-29T08:26:43;21.92;36.49
65419;DHT22;52027;50.658;14.004;2022-12-29T08:29:09;21.96;36.54
65419;DHT22;52027;50.658;14.004;2022-12-29T08:31:34;21.94;36.52
65419;DHT22;52027;50.658;14.004;2022-12-29T08:34:00;21.94;36.55
65419;DHT22;52027;50.658;14.004;2022-12-29T08:36:26;21.96;36.50
65419;DHT22;52027;50.658;14.004;2022-12-29T08:38:52;21.97;36.40
65419;DHT22;52027;50.658;14.004;2022-12-29T08:41:17;21.97;36.46
65419;DHT22;52027;50.658;14.004;2022-12-29T08:43:46;21.99;36.45
65419;DHT22;52027;50.658;14.004;2022-12-29T08:46:12;21.97;36.42
65419;DHT22;52027;50.658;14.004;2022-12-29T08:48:37;22.00;36.39
65419;DHT22;52027;50.658;14.004;2022-12-29T08:51:03;22.01;36.42
65419;DHT22;52027;50.658;14.004;2022-12-29T08:53:28;22.01;36.45
65419;DHT22;52027;50.658;14.004;2022-12-29T08:55:59;22.01;36.63
65419;DHT22;52027;50.658;14.004;2022-12-29T08:58:25;22.00;36.80
65419;DHT22;52027;50.658;14.004;2022-12-29T09:00:56;21.96;36.68
65419;DHT22;52027;50.658;14.004;2022-12-29T09:03:22;21.99;36.75
65419;DHT22;52027;50.658;14.004;2022-12-29T09:05:52;22.01;36.81
65419;DHT22;52027;50.658;14.004;2022-12-29T09:08:18;22.00;36.86
65419;DHT22;52027;50.658;14.004;2022-12-29T09:10:44;22.03;36.79
65419;DHT22;52027;50.658;14.004;2022-12-29T09:13:11;22.04;36.71
65419;DHT22;52027;50.658;14.004;2022-12-29T09:15:36;22.06;36.73
65419;DHT22;52027;50.658;14.004;2022-12-29T09:18:02;22.07;36.72
65419;DHT22;52027;50.658;14.004;2022-12-29T09:20:27;22.07;36.78
65419;DHT22;52027;50.658;14.004;2022-12-29T09:22:53;22.10;36.72
65419;DHT22;52027;50.658;14.004;2022-12-29T09:25:19;22.10;36.73
65419;DHT22;52027;50.658;14.004;2022-12-29T09:27:45;22.07;36.76
65419;DHT22;52027;50.658;14.004;2022-12-29T09:30:11;22.10;36.87
65419;DHT22;52027;50.658;14.004;2022-12-29T09:32:37;22.09;36.82
65419;DHT22;52027;50.658;14.004;2022-12-29T09:35:03;22.11;36.82
65419;DHT22;52027;50.658;14.004;2022-12-29T09:37:28;22.10;36.91
65419;DHT22;52027;50.658;14.004;2022-12-29T09:39:53;22.14;36.86
65419;DHT22;52027;50.658;14.004;2022-12-29T09:42:34;22.11;36.99
65419;DHT22;52027;50.658;14.004;2022-12-29T09:47:29;22.17;37.01
65419;DHT22;52027;50.658;14.004;2022-12-29T09:50:22;22.17;36.92
65419;DHT22;52027;50.658;14.004;2022-12-29T09:55:49;22.18;36.86
65419;DHT22;52027;50.658;14.004;2022-12-29T09:58:30;22.18;36.90
65419;DHT22;52027;50.658;14.004;2022-12-29T10:01:03;22.20;36.86
65419;DHT22;52027;50.658;14.004;2022-12-29T10:09:06;22.25;36.82
65419;DHT22;52027;50.658;14.004;2022-12-29T10:14:46;22.28;36.81
65419;DHT22;52027;50.658;14.004;2022-12-29T10:17:24;22.28;36.76
65419;DHT22;52027;50.658;14.004;2022-12-29T10:26:10;22.36;36.79
65419;DHT22;52027;50.658;14.004;2022-12-29T10:28:38;22.37;36.75
65419;DHT22;52027;50.658;14.004;2022-12-29T10:31:17;22.38;36.72
65419;DHT22;52027;50.658;14.004;2022-12-29T10:33:46;22.43;36.73
65419;DHT22;52027;50.658;14.004;2022-12-29T10:36:20;22.41;36.71
65419;DHT22;52027;50.658;14.004;2022-12-29T10:41:50;22.41;36.73
65419;DHT22;52027;50.658;14.004;2022-12-29T10:44:17;22.45;36.68
65419;DHT22;52027;50.658;14.004;2022-12-29T10:46:44;22.48;36.72
65419;DHT22;52027;50.658;14.004;2022-12-29T10:49:16;22.51;36.67
65419;DHT22;52027;50.658;14.004;2022-12-29T10:51:44;22.55;36.65
65419;DHT22;52027;50.658;14.004;2022-12-29T10:54:11;22.55;36.66
65419;DHT22;52027;50.658;14.004;2022-12-29T10:56:42;22.57;36.65
65419;DHT22;52027;50.658;14.004;2022-12-29T10:59:28;22.58;36.58
65419;DHT22;52027;50.658;14.004;2022-12-29T11:05:00;22.62;36.58
65419;DHT22;52027;50.658;14.004;2022-12-29T11:07:28;22.62;36.51
65419;DHT22;52027;50.658;14.004;2022-12-29T11:09:55;22.65;36.57
65419;DHT22;52027;50.658;14.004;2022-12-29T11:12:40;22.65;36.54
65419;DHT22;52027;50.658;14.004;2022-12-29T11:17:43;22.65;36.72
65419;DHT22;52027;50.658;14.004;2022-12-29T11:20:30;22.66;36.72
65419;DHT22;52027;50.658;14.004;2022-12-29T11:22:56;22.65;36.72
65419;DHT22;52027;50.658;14.004;2022-12-29T11:25:22;22.68;36.69
65419;DHT22;52027;50.658;14.004;2022-12-29T11:28:14;22.66;36.74
65419;DHT22;52027;50.658;14.004;2022-12-29T11:30:40;22.69;36.66
65419;DHT22;52027;50.658;14.004;2022-12-29T11:33:08;22.69;36.68
65419;DHT22;52027;50.658;14.004;2022-12-29T11:35:42;22.71;36.72
65419;DHT22;52027;50.658;14.004;2022-12-29T11:38:23;22.69;36.72
65419;DHT22;52027;50.658;14.004;2022-12-29T11:40:50;22.73;36.62
65419;DHT22;52027;50.658;14.004;2022-12-29T11:43:37;22.75;36.62
65419;DHT22;52027;50.658;14.004;2022-12-29T11:46:04;22.75;36.64
65419;DHT22;52027;50.658;14.004;2022-12-29T11:48:40;22.75;36.62
65419;DHT22;52027;50.658;14.004;2022-12-29T11:51:06;22.72;36.68
65419;DHT22;52027;50.658;14.004;2022-12-29T11:53:47;22.72;36.64
65419;DHT22;52027;50.658;14.004;2022-12-29T11:56:19;22.72;36.58
65419;DHT22;52027;50.658;14.004;2022-12-29T11:58:45;22.72;36.62
65419;DHT22;52027;50.658;14.004;2022-12-29T12:01:23;22.73;36.59
65419;DHT22;52027;50.658;14.004;2022-12-29T12:04:05;22.72;36.71
65419;DHT22;52027;50.658;14.004;2022-12-29T12:06:35;22.69;36.48
65419;DHT22;52027;50.658;14.004;2022-12-29T12:09:16;22.64;36.45
65419;DHT22;52027;50.658;14.004;2022-12-29T12:11:42;22.57;36.52
65419;DHT22;52027;50.658;14.004;2022-12-29T12:14:31;22.52;37.02
65419;DHT22;52027;50.658;14.004;2022-12-29T12:17:08;22.43;37.13
65419;DHT22;52027;50.658;14.004;2022-12-29T12:19:46;22.38;37.29
65419;DHT22;52027;50.658;14.004;2022-12-29T12:22:21;22.34;37.17
65419;DHT22;52027;50.658;14.004;2022-12-29T12:24:54;22.34;37.13
65419;DHT22;52027;50.658;14.004;2022-12-29T12:27:27;22.38;37.11
65419;DHT22;52027;50.658;14.004;2022-12-29T12:35:03;22.44;37.27
65419;DHT22;52027;50.658;14.004;2022-12-29T12:46:12;22.49;37.21
65419;DHT22;52027;50.658;14.004;2022-12-29T12:51:50;22.51;37.12
65419;DHT22;52027;50.658;14.004;2022-12-29T13:00:03;22.54;37.04
65419;DHT22;52027;50.658;14.004;2022-12-29T13:05:16;22.52;37.03
65419;DHT22;52027;50.658;14.004;2022-12-29T13:10:41;22.49;37.15
65419;DHT22;52027;50.658;14.004;2022-12-29T13:18:22;22.55;37.17
65419;DHT22;52027;50.658;14.004;2022-12-29T13:24:00;22.51;37.33
65419;DHT22;52027;50.658;14.004;2022-12-29T13:26:32;22.51;37.20
65419;DHT22;52027;50.658;14.004;2022-12-29T13:34:53;22.49;37.46
65419;DHT22;52027;50.658;14.004;2022-12-29T13:37:26;22.48;37.41
65419;DHT22;52027;50.658;14.004;2022-12-29T13:39:59;22.48;37.46
65419;DHT22;52027;50.658;14.004;2022-12-29T13:42:27;22.47;37.52
65419;DHT22;52027;50.658;14.004;2022-12-29T13:45:02;22.48;37.47
65419;DHT22;52027;50.658;14.004;2022-12-29T13:47:40;22.47;37.46
65419;DHT22;52027;50.658;14.004;2022-12-29T13:50:16;22.47;37.43
65419;DHT22;52027;50.658;14.004;2022-12-29T13:52:51;22.49;37.46
65419;DHT22;52027;50.658;14.004;2022-12-29T13:55:35;22.48;37.50
65419;DHT22;52027;50.658;14.004;2022-12-29T13:58:19;22.47;37.46
65419;DHT22;52027;50.658;14.004;2022-12-29T14:00:56;22.49;37.58
65419;DHT22;52027;50.658;14.004;2022-12-29T14:08:46;22.44;37.53
65419;DHT22;52027;50.658;14.004;2022-12-29T14:11:15;22.45;37.50
65419;DHT22;52027;50.658;14.004;2022-12-29T14:13:43;22.43;37.48
65419;DHT22;52027;50.658;14.004;2022-12-29T14:16:24;22.44;37.44
65419;DHT22;52027;50.658;14.004;2022-12-29T14:18:50;22.43;37.44
65419;DHT22;52027;50.658;14.004;2022-12-29T14:23:43;22.43;37.36
65419;DHT22;52027;50.658;14.004;2022-12-29T14:26:13;22.40;37.38
65419;DHT22;52027;50.658;14.004;2022-12-29T14:28:40;22.40;37.36
65419;DHT22;52027;50.658;14.004;2022-12-29T14:39:41;22.36;37.39
65419;DHT22;52027;50.658;14.004;2022-12-29T14:42:15;22.36;37.33
65419;DHT22;52027;50.658;14.004;2022-12-29T14:45:04;22.36;37.40
65419;DHT22;52027;50.658;14.004;2022-12-29T14:49:57;22.33;37.35
65419;DHT22;52027;50.658;14.004;2022-12-29T14:52:29;22.31;37.35
65419;DHT22;52027;50.658;14.004;2022-12-29T14:57:44;22.30;37.34
65419;DHT22;52027;50.658;14.004;2022-12-29T15:02:50;22.25;37.36
65419;DHT22;52027;50.658;14.004;2022-12-29T15:05:26;22.24;37.35
65419;DHT22;52027;50.658;14.004;2022-12-29T15:07:53;22.25;37.36
65419;DHT22;52027;50.658;14.004;2022-12-29T15:10:21;22.24;37.40
65419;DHT22;52027;50.658;14.004;2022-12-29T15:12:52;22.20;37.36
65419;DHT22;52027;50.658;14.004;2022-12-29T15:17:43;22.20;37.36
65419;DHT22;52027;50.658;14.004;2022-12-29T15:20:34;22.16;37.37
65419;DHT22;52027;50.658;14.004;2022-12-29T15:23:10;22.16;37.38
65419;DHT22;52027;50.658;14.004;2022-12-29T15:25:35;22.17;37.41
65419;DHT22;52027;50.658;14.004;2022-12-29T15:28:04;22.13;37.38
65419;DHT22;52027;50.658;14.004;2022-12-29T15:30:30;22.16;37.41
65419;DHT22;52027;50.658;14.004;2022-12-29T15:32:56;22.11;37.38
65419;DHT22;52027;50.658;14.004;2022-12-29T15:35:32;22.14;37.33
65419;DHT22;52027;50.658;14.004;2022-12-29T15:37:58;22.11;37.33
65419;DHT22;52027;50.658;14.004;2022-12-29T15:40:27;22.10;37.35
65419;DHT22;52027;50.658;14.004;2022-12-29T15:45:30;22.07;37.37
65419;DHT22;52027;50.658;14.004;2022-12-29T15:47:58;22.06;37.34
65419;DHT22;52027;50.658;14.004;2022-12-29T15:50:27;22.04;37.34
65419;DHT22;52027;50.658;14.004;2022-12-29T15:52:53;22.06;37.36
65419;DHT22;52027;50.658;14.004;2022-12-29T15:55:30;22.04;37.31
65419;DHT22;52027;50.658;14.004;2022-12-29T15:57:59;22.01;37.40
65419;DHT22;52027;50.658;14.004;2022-12-29T16:00:27;22.00;37.34
65419;DHT22;52027;50.658;14.004;2022-12-29T16:02:54;22.00;37.37
65419;DHT22;52027;50.658;14.004;2022-12-29T16:05:20;21.99;37.38
65419;DHT22;52027;50.658;14.004;2022-12-29T16:12:50;21.96;37.44
65419;DHT22;52027;50.658;14.004;2022-12-29T16:15:15;21.94;37.38
65419;DHT22;52027;50.658;14.004;2022-12-29T16:17:49;21.96;37.37
65419;DHT22;52027;50.658;14.004;2022-12-29T16:20:19;21.94;37.36
65419;DHT22;52027;50.658;14.004;2022-12-29T16:22:50;21.93;37.34
65419;DHT22;52027;50.658;14.004;2022-12-29T16:25:23;21.92;37.40
65419;DHT22;52027;50.658;14.004;2022-12-29T16:27:49;21.92;37.36
65419;DHT22;52027;50.658;14.004;2022-12-29T16:30:24;21.90;37.36
65419;DHT22;52027;50.658;14.004;2022-12-29T16:32:56;21.88;37.36
65419;DHT22;52027;50.658;14.004;2022-12-29T16:35:24;21.89;37.36
65419;DHT22;52027;50.658;14.004;2022-12-29T16:38:16;21.90;37.40
65419;DHT22;52027;50.658;14.004;2022-12-29T16:40:55;21.88;37.41
65419;DHT22;52027;50.658;14.004;2022-12-29T16:43:23;21.85;37.46
65419;DHT22;52027;50.658;14.004;2022-12-29T16:48:24;21.85;37.41
65419;DHT22;52027;50.658;14.004;2022-12-29T16:50:51;21.83;37.45
65419;DHT22;52027;50.658;14.004;2022-12-29T16:53:32;21.83;37.44
65419;DHT22;52027;50.658;14.004;2022-12-29T16:56:07;21.80;37.48
65419;DHT22;52027;50.658;14.004;2022-12-29T16:58:33;21.79;37.46
65419;DHT22;52027;50.658;14.004;2022-12-29T17:01:02;21.76;37.51
65419;DHT22;52027;50.658;14.004;2022-12-29T17:03:39;21.78;37.47
65419;DHT22;52027;50.658;14.004;2022-12-29T17:06:08;21.76;37.49
65419;DHT22;52027;50.658;14.004;2022-12-29T17:08:42;21.72;37.54
65419;DHT22;52027;50.658;14.004;2022-12-29T17:11:22;21.72;37.54
65419;DHT22;52027;50.658;14.004;2022-12-29T17:17:00;21.73;37.51
65419;DHT22;52027;50.658;14.004;2022-12-29T17:19:31;21.72;37.50
65419;DHT22;52027;50.658;14.004;2022-12-29T17:21:57;21.71;37.45
65419;DHT22;52027;50.658;14.004;2022-12-29T17:24:23;21.71;37.50
65419;DHT22;52027;50.658;14.004;2022-12-29T17:26:57;21.67;37.44
65419;DHT22;52027;50.658;14.004;2022-12-29T17:29:33;21.72;37.44
65419;DHT22;52027;50.658;14.004;2022-12-29T17:32:02;21.71;37.50
65419;DHT22;52027;50.658;14.004;2022-12-29T17:34:28;21.69;37.46
65419;DHT22;52027;50.658;14.004;2022-12-29T17:36:54;21.67;37.48
65419;DHT22;52027;50.658;14.004;2022-12-29T17:39:19;21.66;37.48
65419;DHT22;52027;50.658;14.004;2022-12-29T17:41:45;21.67;37.51
65419;DHT22;52027;50.658;14.004;2022-12-29T17:44:16;21.66;37.51
65419;DHT22;52027;50.658;14.004;2022-12-29T17:46:42;21.67;37.45
65419;DHT22;52027;50.658;14.004;2022-12-29T17:49:17;21.63;37.46
65419;DHT22;52027;50.658;14.004;2022-12-29T17:51:44;21.63;37.48